createdAt,value
2018-12-11T00:01:46.425Z,3.20
2018-12-11T00:04:13.916Z,2.80
2018-12-11T00:06:41.409Z,2.60
2018-12-11T00:09:08.903Z,2.70
2018-12-11T00:11:36.387Z,2.70
2018-12-11T00:14:03.875Z,2.70
2018-12-11T00:16:31.355Z,2.80
2018-12-11T00:18:58.845Z,2.70
2018-12-11T00:21:26.331Z,2.60
2018-12-11T00:23:53.829Z,2.50
2018-12-11T00:26:21.329Z,2.60
2018-12-11T00:28:48.815Z,2.50
2018-12-11T00:31:16.289Z,2.30
2018-12-11T00:33:43.795Z,2.50
2018-12-11T00:36:11.279Z,2.60
2018-12-11T00:38:38.820Z,2.40
2018-12-11T00:41:06.308Z,2.40
2018-12-11T00:43:33.788Z,2.50
2018-12-11T00:46:01.284Z,2.50
2018-12-11T00:48:28.774Z,2.50
2018-12-11T00:50:56.255Z,2.50
2018-12-11T00:53:23.741Z,2.60
2018-12-11T00:55:51.224Z,2.40
2018-12-11T00:58:18.726Z,2.50
2018-12-11T01:00:46.229Z,2.50
2018-12-11T01:03:13.719Z,2.40
2018-12-11T01:05:41.211Z,2.50
2018-12-11T01:08:08.692Z,2.50
2018-12-11T01:10:36.177Z,2.20
2018-12-11T01:13:03.660Z,2.50
2018-12-11T01:15:31.155Z,2.50
2018-12-11T01:17:58.651Z,2.50
2018-12-11T01:20:26.132Z,2.40
2018-12-11T01:22:53.618Z,2.50
2018-12-11T01:25:21.104Z,2.20
2018-12-11T01:27:48.584Z,2.70
2018-12-11T01:30:16.071Z,2.50
2018-12-11T01:32:43.580Z,2.50
2018-12-11T01:35:11.062Z,2.50
2018-12-11T01:37:38.546Z,2.50
2018-12-11T01:40:06.401Z,2.80
2018-12-11T01:42:33.906Z,2.50
2018-12-11T01:45:01.402Z,2.50
2018-12-11T01:47:28.893Z,2.50
2018-12-11T01:49:56.388Z,2.40
2018-12-11T01:52:23.879Z,2.40
2018-12-11T01:54:51.352Z,2.40
2018-12-11T01:57:18.846Z,2.50
2018-12-11T01:59:46.326Z,2.50
2018-12-11T02:02:13.877Z,2.50
2018-12-11T02:04:41.372Z,2.50
2018-12-11T02:07:08.849Z,2.50
2018-12-11T02:09:36.336Z,2.50
2018-12-11T02:12:03.812Z,2.50
2018-12-11T02:14:31.295Z,2.10
2018-12-11T02:16:58.778Z,2.50
2018-12-11T02:21:53.779Z,2.50
2018-12-11T02:24:21.269Z,2.50
2018-12-11T02:26:48.769Z,2.50
2018-12-11T02:29:16.249Z,2.50
2018-12-11T02:31:43.745Z,2.50
2018-12-11T02:34:11.251Z,2.50
2018-12-11T02:36:38.740Z,2.50
2018-12-11T02:39:06.997Z,2.50
2018-12-11T02:41:34.490Z,2.50
2018-12-11T02:44:02.037Z,2.60
2018-12-11T02:46:29.540Z,2.50
2018-12-11T02:48:57.044Z,2.50
2018-12-11T02:51:24.528Z,2.60
2018-12-11T02:53:52.025Z,2.50
2018-12-11T02:56:19.514Z,2.60
2018-12-11T02:58:47.015Z,2.50
2018-12-11T03:01:14.510Z,2.50
2018-12-11T03:03:41.994Z,2.70
2018-12-11T03:08:36.997Z,2.50
2018-12-11T03:11:04.555Z,2.40
2018-12-11T03:13:32.050Z,2.40
2018-12-11T03:15:59.542Z,2.40
2018-12-11T03:18:27.034Z,2.40
2018-12-11T03:20:54.513Z,2.30
2018-12-11T03:23:22.006Z,2.30
2018-12-11T03:25:49.495Z,2.20
2018-12-11T03:28:16.970Z,2.30
2018-12-11T03:30:44.473Z,2.20
2018-12-11T03:33:12.068Z,2.20
2018-12-11T03:35:39.544Z,2.20
2018-12-11T03:38:07.029Z,2.20
2018-12-11T03:40:34.510Z,2.20
2018-12-11T03:43:02.003Z,2.20
2018-12-11T03:45:29.484Z,2.30
2018-12-11T03:47:56.987Z,2.30
2018-12-11T03:50:24.471Z,2.30
2018-12-11T03:52:51.959Z,2.30
2018-12-11T03:55:19.447Z,2.30
2018-12-11T03:57:46.934Z,2.30
2018-12-11T04:00:14.584Z,2.20
2018-12-11T04:02:42.066Z,2.20
2018-12-11T04:05:09.626Z,2.30
2018-12-11T04:07:37.123Z,1.80
2018-12-11T04:10:06.352Z,2.30
2018-12-11T04:12:34.018Z,2.30
2018-12-11T04:15:01.596Z,2.20
2018-12-11T04:17:29.085Z,2.30
2018-12-11T04:19:56.579Z,2.30
2018-12-11T04:22:24.090Z,2.30
2018-12-11T04:24:51.587Z,2.70
2018-12-11T04:27:19.079Z,2.30
2018-12-11T04:29:46.567Z,2.30
2018-12-11T04:32:14.059Z,2.40
2018-12-11T04:34:41.544Z,2.40
2018-12-11T04:37:09.034Z,2.40
2018-12-11T04:39:36.763Z,2.30
2018-12-11T04:42:04.439Z,2.30
2018-12-11T04:44:31.983Z,2.30
2018-12-11T04:46:59.467Z,1.90
2018-12-11T04:49:26.965Z,2.10
2018-12-11T04:51:54.469Z,2.00
2018-12-11T04:54:21.962Z,1.90
2018-12-11T04:56:49.451Z,1.90
2018-12-11T04:59:16.947Z,1.90
2018-12-11T05:01:44.461Z,1.90
2018-12-11T05:04:11.957Z,1.90
2018-12-11T05:06:39.433Z,2.00
2018-12-11T05:09:06.921Z,2.20
2018-12-11T05:11:34.487Z,2.10
2018-12-11T05:14:01.980Z,2.00
2018-12-11T05:16:29.465Z,2.10
2018-12-11T05:18:56.964Z,2.20
2018-12-11T05:21:24.460Z,2.20
2018-12-11T05:23:51.950Z,2.20
2018-12-11T05:26:19.443Z,2.20
2018-12-11T05:28:46.935Z,2.20
2018-12-11T05:31:14.443Z,2.30
2018-12-11T05:33:41.942Z,2.40
2018-12-11T05:36:09.659Z,2.30
2018-12-11T05:38:37.154Z,2.20
2018-12-11T05:41:04.639Z,2.30
2018-12-11T05:43:32.134Z,2.40
2018-12-11T05:45:59.680Z,2.20
2018-12-11T05:48:27.160Z,2.40
2018-12-11T05:50:54.650Z,2.40
2018-12-11T05:53:22.170Z,2.40
2018-12-11T05:55:49.660Z,2.10
2018-12-11T05:58:17.148Z,2.40
2018-12-11T06:00:44.648Z,2.50
2018-12-11T06:03:12.144Z,2.50
2018-12-11T06:05:39.640Z,2.50
2018-12-11T06:08:07.141Z,2.50
2018-12-11T06:10:34.664Z,2.50
2018-12-11T06:13:02.147Z,2.40
2018-12-11T06:15:29.639Z,2.80
2018-12-11T06:17:57.146Z,2.90
2018-12-11T06:20:24.650Z,2.40
2018-12-11T06:22:52.142Z,2.30
2018-12-11T06:25:19.631Z,2.60
2018-12-11T06:27:47.135Z,2.50
2018-12-11T06:30:14.636Z,2.40
2018-12-11T06:32:42.119Z,2.40
2018-12-11T06:35:09.607Z,2.40
2018-12-11T06:37:37.099Z,2.20
2018-12-11T06:40:05.915Z,2.30
2018-12-11T06:42:33.426Z,2.20
2018-12-11T06:45:00.914Z,2.20
2018-12-11T06:47:28.407Z,2.10
2018-12-11T06:49:55.891Z,2.30
2018-12-11T06:52:23.379Z,2.00
2018-12-11T06:54:50.877Z,2.10
2018-12-11T06:57:18.382Z,2.10
2018-12-11T06:59:45.883Z,2.20
2018-12-11T07:02:13.365Z,2.20
2018-12-11T07:04:40.853Z,2.30
2018-12-11T07:07:08.416Z,2.30
2018-12-11T07:09:35.899Z,2.30
2018-12-11T07:12:03.401Z,2.40
2018-12-11T07:14:30.891Z,2.30
2018-12-11T07:16:58.379Z,2.10
2018-12-11T07:19:25.869Z,2.30
2018-12-11T07:21:53.367Z,2.30
2018-12-11T07:24:20.861Z,2.40
2018-12-11T07:26:48.395Z,2.40
2018-12-11T07:29:15.979Z,2.40
2018-12-11T07:31:43.460Z,2.40
2018-12-11T07:34:10.951Z,2.40
2018-12-11T07:36:38.426Z,2.70
2018-12-11T07:39:06.183Z,2.60
2018-12-11T07:41:33.678Z,2.60
2018-12-11T07:44:01.165Z,2.60
2018-12-11T07:46:28.660Z,2.70
2018-12-11T07:48:56.151Z,2.70
2018-12-11T07:51:23.629Z,2.60
2018-12-11T07:53:51.120Z,2.80
2018-12-11T07:56:18.608Z,2.80
2018-12-11T07:58:46.110Z,2.80
2018-12-11T08:01:13.677Z,2.90
2018-12-11T08:03:41.156Z,2.80
2018-12-11T08:06:08.640Z,2.80
2018-12-11T08:08:36.129Z,2.90
2018-12-11T08:11:03.694Z,2.70
2018-12-11T08:13:31.193Z,2.80
2018-12-11T08:15:58.694Z,2.80
2018-12-11T08:18:26.194Z,2.90
2018-12-11T08:20:53.693Z,2.80
2018-12-11T08:23:21.195Z,2.80
2018-12-11T08:25:48.685Z,2.80
2018-12-11T08:28:16.176Z,2.80
2018-12-11T08:30:43.688Z,2.70
2018-12-11T08:33:11.178Z,2.80
2018-12-11T08:35:38.672Z,2.80
2018-12-11T08:38:06.162Z,2.70
2018-12-11T08:40:33.671Z,2.80
2018-12-11T08:43:01.158Z,2.80
2018-12-11T08:45:28.653Z,2.80
2018-12-11T08:47:56.144Z,2.60
2018-12-11T08:50:23.653Z,2.70
2018-12-11T08:52:51.151Z,2.70
2018-12-11T08:55:18.648Z,2.80
2018-12-11T08:57:46.133Z,2.80
2018-12-11T09:00:13.699Z,2.70
2018-12-11T09:02:41.187Z,2.60
2018-12-11T09:05:08.683Z,2.70
2018-12-11T09:07:36.179Z,2.70
2018-12-11T09:10:05.710Z,2.60
2018-12-11T09:12:33.198Z,2.90
2018-12-11T09:15:00.688Z,2.70
2018-12-11T09:17:28.167Z,2.70
2018-12-11T09:19:55.671Z,2.70
2018-12-11T09:22:23.151Z,2.70
2018-12-11T09:24:50.640Z,3.10
2018-12-11T09:27:18.124Z,2.70
2018-12-11T09:32:13.121Z,3.10
2018-12-11T09:34:40.610Z,2.80
2018-12-11T09:37:08.111Z,2.90
2018-12-11T09:39:35.612Z,2.90
2018-12-11T09:42:07.069Z,2.90
2018-12-11T09:44:32.630Z,2.80
2018-12-11T09:47:00.124Z,2.80
2018-12-11T09:49:27.624Z,2.90
2018-12-11T09:51:55.120Z,2.90
2018-12-11T09:56:50.129Z,2.90
2018-12-11T09:59:23.415Z,2.90
2018-12-11T10:01:47.980Z,2.90
2018-12-11T10:04:15.484Z,2.90
2018-12-11T10:06:42.980Z,2.90
2018-12-11T10:09:10.468Z,2.90
2018-12-11T10:11:37.959Z,3.00
2018-12-11T10:14:05.456Z,3.10
2018-12-11T10:16:32.950Z,3.60
2018-12-11T10:19:00.436Z,3.10
2018-12-11T10:21:27.916Z,3.20
2018-12-11T10:23:55.432Z,3.20
2018-12-11T10:26:22.918Z,3.20
2018-12-11T10:28:50.408Z,3.20
2018-12-11T10:31:17.901Z,3.20
2018-12-11T10:33:45.400Z,3.30
2018-12-11T10:36:13.246Z,3.30
2018-12-11T10:38:40.740Z,3.50
2018-12-11T10:41:08.237Z,3.30
2018-12-11T10:43:35.716Z,3.40
2018-12-11T10:46:03.200Z,3.30
2018-12-11T10:48:30.692Z,3.30
2018-12-11T10:50:58.184Z,3.40
2018-12-11T10:53:25.946Z,3.40
2018-12-11T10:55:53.438Z,3.40
2018-12-11T10:58:20.958Z,3.30
2018-12-11T11:00:50.415Z,3.40
2018-12-11T11:03:17.893Z,3.40
2018-12-11T11:05:45.376Z,3.40
2018-12-11T11:08:12.868Z,3.40
2018-12-11T11:10:40.366Z,3.30
2018-12-11T11:13:07.848Z,3.60
2018-12-11T11:15:35.436Z,3.20
2018-12-11T11:18:02.949Z,3.50
2018-12-11T11:20:30.448Z,3.40
2018-12-11T11:22:58.059Z,3.50
2018-12-11T11:25:25.561Z,3.50
2018-12-11T11:27:53.056Z,3.50
2018-12-11T11:30:20.556Z,3.50
2018-12-11T11:32:48.051Z,3.60
2018-12-11T11:35:15.537Z,3.60
2018-12-11T11:37:43.033Z,3.50
2018-12-11T11:40:10.563Z,3.60
2018-12-11T11:42:38.224Z,3.60
2018-12-11T11:45:07.325Z,3.60
2018-12-11T11:47:34.812Z,3.60
2018-12-11T11:50:02.596Z,3.60
2018-12-11T11:52:30.088Z,3.80
2018-12-11T11:54:57.607Z,3.60
2018-12-11T11:57:29.670Z,3.70
2018-12-11T11:59:54.619Z,3.60
2018-12-11T12:02:22.117Z,3.60
2018-12-11T12:04:49.683Z,3.50
2018-12-11T12:07:17.228Z,3.40
2018-12-11T12:09:44.730Z,3.50
2018-12-11T12:12:12.226Z,3.50
2018-12-11T12:14:39.797Z,3.60
2018-12-11T12:17:07.366Z,3.50
2018-12-11T12:19:34.855Z,3.60
2018-12-11T12:22:02.465Z,3.50
2018-12-11T12:24:29.964Z,3.30
2018-12-11T12:29:24.942Z,3.40
2018-12-11T12:34:19.944Z,3.70
2018-12-11T12:36:47.442Z,3.70
2018-12-11T12:39:14.942Z,3.70
2018-12-11T12:41:42.441Z,3.60
2018-12-11T12:46:37.507Z,3.70
2018-12-11T12:49:05.044Z,3.80
2018-12-11T12:54:00.252Z,3.70
2018-12-11T12:56:27.792Z,3.80
2018-12-11T12:58:55.300Z,3.80
2018-12-11T13:01:22.809Z,3.80
2018-12-11T13:03:50.691Z,3.90
2018-12-11T13:06:18.194Z,3.90
2018-12-11T13:08:45.727Z,3.90
2018-12-11T13:11:13.344Z,3.60
2018-12-11T13:13:40.838Z,3.90
2018-12-11T13:16:08.366Z,3.90
2018-12-11T13:18:35.857Z,4.10
2018-12-11T13:21:03.374Z,3.90
2018-12-11T13:23:30.896Z,4.10
2018-12-11T13:25:58.384Z,3.60
2018-12-11T13:30:53.397Z,3.60
2018-12-11T13:33:20.965Z,3.70
2018-12-11T13:35:48.589Z,3.60
2018-12-11T13:38:16.097Z,3.50
2018-12-11T13:43:11.170Z,3.50
2018-12-11T13:45:38.684Z,3.70
2018-12-11T13:48:06.297Z,3.60
2018-12-11T13:50:33.966Z,3.60
2018-12-11T13:53:01.470Z,3.80
2018-12-11T13:55:28.964Z,3.50
2018-12-11T14:00:24.032Z,3.60
2018-12-11T14:05:19.035Z,3.50
2018-12-11T14:10:14.026Z,3.50
2018-12-11T14:12:41.598Z,3.20
2018-12-11T14:15:09.245Z,3.50
2018-12-11T14:17:36.768Z,3.60
2018-12-11T14:20:05.498Z,3.50
2018-12-11T14:22:33.043Z,3.50
2018-12-11T14:25:00.923Z,3.40
2018-12-11T14:29:55.943Z,3.90
2018-12-11T14:32:23.566Z,3.60
2018-12-11T14:34:51.065Z,3.60
2018-12-11T14:37:18.586Z,3.50
2018-12-11T14:39:46.090Z,3.50
2018-12-11T14:42:13.579Z,3.20
2018-12-11T14:44:41.097Z,3.30
2018-12-11T14:47:08.612Z,3.20
2018-12-11T14:49:36.103Z,2.90
2018-12-11T14:52:03.873Z,2.70
2018-12-11T14:54:31.375Z,2.80
2018-12-11T14:56:58.897Z,2.60
2018-12-11T14:59:26.406Z,2.50
2018-12-11T15:01:53.902Z,2.50
2018-12-11T15:04:21.513Z,2.40
2018-12-11T15:09:22.339Z,2.30
2018-12-11T15:11:49.837Z,2.30
2018-12-11T15:14:17.583Z,2.50
2018-12-11T15:16:45.123Z,2.40
2018-12-11T15:19:13.445Z,2.70
2018-12-11T15:21:40.983Z,2.30
2018-12-11T15:24:08.511Z,2.30
2018-12-11T15:26:36.513Z,2.30
2018-12-11T15:29:04.071Z,2.30
2018-12-11T15:31:31.579Z,2.40
2018-12-11T15:33:59.098Z,2.30
2018-12-11T15:36:27.167Z,2.30
2018-12-11T15:38:54.851Z,2.70
2018-12-11T15:41:22.397Z,2.30
2018-12-11T15:43:50.725Z,2.30
2018-12-11T15:46:18.637Z,2.20
2018-12-11T15:48:46.301Z,2.30
2018-12-11T15:51:13.872Z,2.40
2018-12-11T15:53:41.443Z,2.40
2018-12-11T15:56:08.964Z,2.40
2018-12-11T16:01:04.031Z,2.40
2018-12-11T16:03:32.189Z,2.50
2018-12-11T16:05:59.724Z,2.60
2018-12-11T16:08:27.255Z,2.60
2018-12-11T16:10:54.771Z,2.50
2018-12-11T16:13:22.328Z,2.60
2018-12-11T16:15:49.859Z,2.20
2018-12-11T16:18:17.409Z,2.60
2018-12-11T16:20:44.943Z,2.50
2018-12-11T16:23:12.487Z,2.30
2018-12-11T16:25:40.077Z,2.40
2018-12-11T16:28:08.950Z,1.90
2018-12-11T16:30:36.528Z,1.90
2018-12-11T16:33:04.212Z,2.00
2018-12-11T16:35:31.764Z,2.20
2018-12-11T16:38:00.256Z,2.00
2018-12-11T16:40:27.794Z,1.80
2018-12-11T16:42:55.358Z,1.90
2018-12-11T16:45:22.916Z,1.80
2018-12-11T16:47:50.565Z,1.90
2018-12-11T16:55:13.990Z,1.70
2018-12-11T16:57:41.827Z,1.90
2018-12-11T17:00:10.509Z,1.90
2018-12-11T17:02:42.241Z,1.40
2018-12-11T17:05:10.389Z,1.90
2018-12-11T17:07:37.975Z,1.90
2018-12-11T17:12:33.713Z,1.90
2018-12-11T17:15:02.917Z,1.90
2018-12-11T17:17:30.729Z,1.90
2018-12-11T17:19:58.279Z,1.90
2018-12-11T17:22:25.945Z,1.90
2018-12-11T17:24:54.453Z,1.90
2018-12-11T17:27:21.993Z,2.00
2018-12-11T17:29:50.288Z,2.10
2018-12-11T17:32:18.323Z,1.90
2018-12-11T17:34:45.845Z,1.80
2018-12-11T17:37:14.434Z,2.30
2018-12-11T17:39:41.980Z,1.60
2018-12-11T17:42:09.508Z,2.10
2018-12-11T17:44:37.603Z,2.50
2018-12-11T17:49:33.505Z,2.20
2018-12-11T17:54:30.112Z,2.00
2018-12-11T17:56:59.289Z,2.00
2018-12-11T17:59:26.840Z,2.00
2018-12-11T18:01:57.338Z,2.30
2018-12-11T18:04:26.449Z,2.30
2018-12-11T18:06:58.588Z,1.90
2018-12-11T18:09:26.128Z,2.10
2018-12-11T18:11:55.298Z,2.30
2018-12-11T18:14:23.235Z,2.00
2018-12-11T18:16:51.814Z,2.00
2018-12-11T18:19:19.365Z,2.10
2018-12-11T18:21:46.901Z,2.10
2018-12-11T18:24:17.169Z,2.10
2018-12-11T18:29:12.342Z,2.20
2018-12-11T18:31:40.320Z,2.10
2018-12-11T18:34:11.262Z,1.70
2018-12-11T18:36:40.790Z,2.40
2018-12-11T18:39:08.388Z,2.20
2018-12-11T18:41:36.001Z,2.00
2018-12-11T18:44:06.137Z,2.10
2018-12-11T18:46:36.373Z,1.90
2018-12-11T18:49:04.387Z,2.10
2018-12-11T18:54:00.677Z,2.20
2018-12-11T18:56:29.725Z,2.40
2018-12-11T18:59:00.269Z,2.40
2018-12-11T19:01:28.301Z,2.40
2018-12-11T19:03:59.050Z,2.40
2018-12-11T19:06:28.503Z,2.40
2018-12-11T19:08:56.509Z,2.70
2018-12-11T19:11:24.634Z,2.50
2018-12-11T19:13:53.272Z,2.40
2018-12-11T19:16:24.723Z,2.30
2018-12-11T19:18:54.518Z,2.40
2018-12-11T19:21:23.954Z,2.40
2018-12-11T19:23:52.249Z,2.20
2018-12-11T19:26:23.486Z,2.40
2018-12-11T19:28:57.951Z,2.40
2018-12-11T19:31:27.603Z,2.60
2018-12-11T19:38:53.130Z,2.60
2018-12-11T19:41:27.026Z,2.70
2018-12-11T19:43:56.417Z,2.30
2018-12-11T19:46:23.992Z,2.20
2018-12-11T19:48:52.890Z,3.00
2018-12-11T19:53:50.940Z,2.30
2018-12-11T19:56:21.065Z,2.00
2018-12-11T19:58:49.751Z,2.10
2018-12-11T20:03:45.707Z,2.30
2018-12-11T20:06:15.206Z,2.30
2018-12-11T20:08:42.789Z,2.40
2018-12-11T20:11:11.356Z,2.30
2018-12-11T20:13:41.576Z,2.30
2018-12-11T20:16:10.153Z,2.20
2018-12-11T20:18:39.363Z,2.20
2018-12-11T20:21:07.376Z,2.40
2018-12-11T20:23:35.483Z,2.40
2018-12-11T20:26:04.031Z,2.40
2018-12-11T20:28:31.702Z,2.30
2018-12-11T20:31:01.687Z,2.20
2018-12-11T20:33:29.627Z,2.20
2018-12-11T20:36:00.896Z,2.30
2018-12-11T20:38:31.728Z,2.10
2018-12-11T20:40:59.738Z,2.20
2018-12-11T20:43:30.205Z,2.20
2018-12-11T20:45:58.083Z,2.30
2018-12-11T20:48:27.841Z,2.30
2018-12-11T20:50:56.106Z,2.30
2018-12-11T20:53:24.061Z,2.30
2018-12-11T20:55:51.599Z,2.30
2018-12-11T20:58:19.139Z,2.30
2018-12-11T21:00:50.236Z,2.40
2018-12-11T21:03:21.512Z,2.60
2018-12-11T21:05:52.766Z,2.50
2018-12-11T21:08:21.076Z,2.10
2018-12-11T21:10:48.738Z,2.30
2018-12-11T21:13:16.651Z,2.40
2018-12-11T21:15:45.321Z,2.50
2018-12-11T21:18:15.187Z,2.50
2018-12-11T21:20:44.294Z,2.50
2018-12-11T21:23:12.748Z,2.40
2018-12-11T21:25:42.022Z,2.50
2018-12-11T21:28:12.683Z,2.60
2018-12-11T21:30:41.030Z,2.50
2018-12-11T21:33:10.224Z,2.40
2018-12-11T21:35:42.678Z,2.40
2018-12-11T21:38:10.231Z,2.50
2018-12-11T21:40:40.973Z,2.40
2018-12-11T21:43:08.530Z,2.80
2018-12-11T21:45:36.041Z,2.50
2018-12-11T21:50:34.237Z,2.50
2018-12-11T21:53:02.353Z,2.50
2018-12-11T21:55:29.885Z,2.50
2018-12-11T21:57:59.104Z,2.40
2018-12-11T22:00:27.446Z,2.40
2018-12-11T22:02:56.409Z,2.40
2018-12-11T22:05:24.615Z,2.50
2018-12-11T22:07:52.563Z,2.40
2018-12-11T22:10:20.109Z,2.40
2018-12-11T22:12:51.045Z,2.40
2018-12-11T22:15:18.585Z,2.40
2018-12-11T22:17:46.124Z,2.50
2018-12-11T22:20:13.661Z,2.40
2018-12-11T22:22:42.004Z,2.40
2018-12-11T22:25:10.565Z,2.40
2018-12-11T22:27:39.014Z,2.40
2018-12-11T22:30:06.692Z,2.40
2018-12-11T22:32:34.216Z,2.50
2018-12-11T22:35:01.758Z,2.30
2018-12-11T22:37:30.199Z,2.60
2018-12-11T22:39:57.731Z,2.40
2018-12-11T22:42:25.806Z,2.40
2018-12-11T22:44:53.315Z,2.40
2018-12-11T22:47:21.769Z,2.30
2018-12-11T22:49:49.325Z,2.40
2018-12-11T22:52:16.825Z,2.40
2018-12-11T22:54:45.263Z,2.40
2018-12-11T22:57:12.775Z,2.40
2018-12-11T22:59:40.292Z,2.40
2018-12-11T23:02:07.799Z,2.40
2018-12-11T23:04:35.302Z,2.40
2018-12-11T23:07:02.817Z,2.40
2018-12-11T23:09:30.328Z,2.40
2018-12-11T23:11:57.821Z,2.50
2018-12-11T23:14:25.897Z,2.50
2018-12-11T23:16:53.400Z,2.40
2018-12-11T23:19:20.908Z,2.40
2018-12-11T23:21:48.417Z,2.40
2018-12-11T23:24:15.909Z,2.40
2018-12-11T23:26:43.421Z,2.40
2018-12-11T23:29:10.907Z,2.50
2018-12-11T23:31:38.414Z,2.50
2018-12-11T23:34:05.944Z,2.40
2018-12-11T23:36:33.462Z,2.40
2018-12-11T23:39:00.965Z,2.30
2018-12-11T23:41:28.472Z,2.40
2018-12-11T23:43:55.974Z,2.40
2018-12-11T23:46:23.483Z,2.30
2018-12-11T23:48:50.968Z,2.40
2018-12-11T23:51:18.465Z,2.00
2018-12-11T23:53:45.980Z,2.50
2018-12-11T23:56:13.474Z,2.50
2018-12-11T23:58:40.986Z,2.40
